Ferintosh, Canada
Current Conditions -  °F | °C
As of 4:00 PM on Wednesday 22 Oct 2014 (Local Time) from CYEG Reporting Station
Broken Clouds Broken Clouds  
Wind Chill: 59°   Ceiling: 24000
Heat Index: 59°   Visibility: 15mi
Dew Point: 30°   Wind: 13mph
Humidity: 34%   Direction: 160°SSE
Pressure: 29.57"   Gusts: 22mph
Location:  52.77°N, 112.97°W
Report Text: CYEG 222200Z 16011G19KT 15SM FEW064 FEW150 BKN240 15/M01 A2957 RMK CU1AC1CI6 CU TR SLP031 DENSITY ALT 3300FT
Loading
Personal Weather Stations






























Interactive Weather Map
Tropical Storm Tracking
New forecast layout! Learn more

10-Day Weather Forecast

Advertisements
Track Severe Weather on mobile